Latest Coastal Weather Observations for Port Kembla Harbour

IDN60701

Issued at 8:25 pm EDT Friday 31 October 2014 (issued every 10 minutes, with the page automatically refreshed every 10 minutes)

About coastal observations | Map of coastal stations | Coastal observations for NSW | Marine services | Other Formats
Station Details ID: 068253 Name: PORT KEMBLA NTC AWS Lat: -34.47 Lon: 150.91 Height: 0.0 m
Data from the previous 72 hours. | See also: Recent months for locations in New South Wales
Date/Time
EDT
Temp

°C
Wind Pressure Rain
since 9am
mm
Weather Cloud Vis
km
Sea
Height
m
Swell
Dir
 
Speed
knots
Gust
knots
hPa Trend Height
m
Period
s
Dir
31/08:00pm 20.8 N 7 9 1006.7 - - - - - - - - -
31/07:30pm 21.1 NNE 5 7 1006.6 - - - - - - - - -
31/07:00pm 21.6 NNE 6 9 1006.5 - - - - - - - - -
31/06:30pm 22.1 NNE 7 11 1006.4 - - - - - - - - -
31/06:00pm 21.9 N 5 10 1006.2 - - - - - - - - -
31/05:30pm 21.5 N 8 12 1006.3 - - - - - - - - -
31/05:00pm 21.9 N 8 16 1006.2 - - - - - - - - -
31/04:30pm 21.6 NNE 6 11 1006.3 - - - - - - - - -
31/04:00pm 21.4 NNE 7 10 1006.7 - - - - - - - - -
31/03:30pm 21.4 N 5 8 1006.8 - - - - - - - - -
31/03:00pm 21.1 NNE 5 8 1007.5 - - - - - - - - -
31/02:30pm 20.8 NNE 6 8 1008.1 - - - - - - - - -
31/02:00pm 20.6 NNE 6 9 1008.7 - - - - - - - - -
31/01:30pm 20.6 NE 6 11 1009.2 - - - - - - - - -
31/01:00pm 20.7 NE 5 7 1009.7 - - - - - - - - -
31/12:30pm 20.3 ENE 5 8 1010.2 - - - - - - - - -
31/12:00pm 20.1 E 5 7 1010.9 - - - - - - - - -
31/11:30am 20.0 ENE 4 6 1011.5 - - - - - - - - -
31/11:00am 19.6 E 4 6 1012.0 - - - - - - - - -
31/10:30am 19.6 E 3 5 1012.4 - - - - - - - - -
31/10:00am 19.2 E 3 5 1012.6 - - - - - - - - -
31/09:30am 19.1 E 3 4 1012.6 - - - - - - - - -
31/09:00am 18.9 E 2 4 1012.8 - - - - - - - - -
31/08:30am 18.9 E 2 3 1012.6 - - - - - - - - -
31/08:00am 19.1 E 1 2 1012.4 - - - - - - - - -
31/07:30am 18.3 SW 1 1 1012.3 - - - - - - - - -
31/07:00am 17.5 SSW 2 3 1012.4 - - - - - - - - -
31/06:30am 16.7 SW 1 2 1012.4 - - - - - - - - -
31/06:00am 16.8 SSW 2 3 1012.2 - - - - - - - - -
31/05:30am 17.0 S 1 1 1012.0 - - - - - - - - -
31/05:00am 16.8 WSW 3 4 1011.9 - - - - - - - - -
31/04:30am 16.9 WSW 3 3 1012.0 - - - - - - - - -
31/04:00am 17.1 W 3 4 1012.2 - - - - - - - - -
31/03:30am 17.7 SW 3 5 1012.3 - - - - - - - - -
31/03:00am 17.0 WSW 3 4 1012.4 - - - - - - - - -
31/02:30am 17.0 WSW 2 3 1012.5 - - - - - - - - -
31/02:00am 17.8 W 3 4 1012.7 - - - - - - - - -
31/01:30am 18.2 WSW 3 4 1013.0 - - - - - - - - -
31/01:00am 19.1 S 2 5 1013.2 - - - - - - - - -
31/12:30am 18.4 SW 5 6 1013.4 - - - - - - - - -
31/12:00am 18.8 SW 4 5 1013.5 - - - - - - - - -
 
Date/Time
EDT
Temp

°C
Wind Pressure Rain
since 9am
mm
Weather Cloud Vis
km
Sea
Height
m
Swell
Dir
 
Speed
knots
Gust
knots
hPa Trend Height
m
Period
s
Dir
30/11:30pm 19.0 SW 3 4 1013.3 - - - - - - - - -
30/11:00pm 19.2 SSW 2 3 1013.4 - - - - - - - - -
30/10:30pm 19.7 WNW 1 3 1013.4 - - - - - - - - -
30/10:00pm 19.7 N 4 6 1013.2 - - - - - - - - -
30/09:30pm 19.9 N 4 6 1013.1 - - - - - - - - -
30/09:00pm 20.1 NNE 5 6 1013.0 - - - - - - - - -
30/08:30pm 20.6 NNE 7 8 1012.7 - - - - - - - - -
30/08:00pm 20.6 NNE 7 9 1012.4 - - - - - - - - -
30/07:30pm 20.9 N 7 9 1012.0 - - - - - - - - -
30/07:00pm 21.3 NNE 4 6 1011.7 - - - - - - - - -
30/06:30pm 21.4 N 4 5 1011.4 - - - - - - - - -
30/06:00pm 22.1 N 2 3 1011.2 - - - - - - - - -
30/05:30pm 21.7 NE 1 2 1011.0 - - - - - - - - -
30/05:00pm 22.1 N 1 2 1010.9 - - - - - - - - -
30/04:30pm 21.5 ENE 2 4 1010.8 - - - - - - - - -
30/04:00pm 21.2 NE 3 5 1010.8 - - - - - - - - -
30/03:30pm 21.5 NNE 4 6 1011.0 - - - - - - - - -
30/03:00pm 21.2 NNE 5 7 1011.0 - - - - - - - - -
30/02:30pm 21.5 ENE 6 10 1011.3 - - - - - - - - -
30/02:00pm 21.4 ENE 7 10 1011.6 - - - - - - - - -
30/01:30pm 21.5 ENE 7 11 1012.0 - - - - - - - - -
30/01:00pm 22.3 ENE 7 11 1012.1 - - - - - - - - -
30/12:30pm 21.4 NE 8 11 1012.3 - - - - - - - - -
30/12:00pm 21.0 NE 7 10 1012.9 - - - - - - - - -
30/11:30am 20.8 NE 6 10 1013.1 - - - - - - - - -
30/11:00am 20.3 NE 7 10 1013.6 - - - - - - - - -
30/10:30am 20.5 NE 6 8 1013.8 - - - - - - - - -
30/10:00am 19.4 NE 6 9 1013.9 - - - - - - - - -
30/09:30am 19.6 NE 3 6 1014.2 - - - - - - - - -
30/09:00am 19.5 NNE 3 4 1014.3 - - - - - - - - -
30/08:30am 18.8 NE 4 5 1014.5 - - - - - - - - -
30/08:00am 19.4 NNE 1 2 1014.5 - - - - - - - - -
30/07:30am 19.3 N 2 3 1014.4 - - - - - - - - -
30/07:00am 18.2 N 1 3 1014.3 - - - - - - - - -
30/06:30am 17.5 N 4 6 1014.0 - - - - - - - - -
30/06:00am 17.4 N 5 7 1014.0 - - - - - - - - -
30/05:30am 17.5 NW 4 6 1014.1 - - - - - - - - -
30/05:00am 17.7 N 5 7 1014.0 - - - - - - - - -
30/04:30am 17.8 N 5 9 1013.9 - - - - - - - - -
30/04:00am 17.8 N 7 9 1014.1 - - - - - - - - -
30/03:30am 18.0 N 7 9 1014.3 - - - - - - - - -
30/03:00am 18.2 N 6 9 1014.6 - - - - - - - - -
30/02:30am 18.3 NNE 10 14 1014.9 - - - - - - - - -
30/02:00am 18.6 N 11 14 1015.1 - - - - - - - - -
30/01:30am 18.7 N 11 14 1015.3 - - - - - - - - -
30/01:00am 18.7 NNE 9 11 1015.6 - - - - - - - - -
30/12:30am 18.7 NNE 8 10 1015.9 - - - - - - - - -
30/12:00am 18.7 NNE 8 12 1016.2 - - - - - - - - -
 
Date/Time
EDT
Temp

°C
Wind Pressure Rain
since 9am
mm
Weather Cloud Vis
km
Sea
Height
m
Swell
Dir
 
Speed
knots
Gust
knots
hPa Trend Height
m
Period
s
Dir
29/11:30pm 18.6 N 9 11 1016.3 - - - - - - - - -
29/11:00pm 18.6 NNE 10 13 1016.4 - - - - - - - - -
29/10:30pm 18.8 NNE 8 11 1016.3 - - - - - - - - -
29/10:00pm 18.8 NNE 9 13 1016.2 - - - - - - - - -
29/09:30pm 18.9 NNE 12 15 1016.4 - - - - - - - - -
29/09:00pm 18.8 NE 11 15 1016.4 - - - - - - - - -
29/08:30pm 18.8 NE 11 14 1016.2 - - - - - - - - -
29/08:00pm 18.7 NE 10 13 1016.1 - - - - - - - - -
29/07:30pm 18.5 NE 10 14 1015.8 - - - - - - - - -
29/07:00pm 18.5 NE 10 14 1015.5 - - - - - - - - -
29/06:30pm 18.5 NE 11 14 1015.4 - - - - - - - - -
29/06:00pm 18.5 NE 10 14 1015.1 - - - - - - - - -
29/05:30pm 18.5 NE 10 13 1015.1 - - - - - - - - -
29/05:00pm 18.6 ENE 9 15 1015.0 - - - - - - - - -
29/04:30pm 18.7 ENE 9 13 1015.0 - - - - - - - - -
29/04:00pm 18.7 ENE 9 14 1015.3 - - - - - - - - -
29/03:30pm 18.7 ENE 9 15 1015.5 - - - - - - - - -
29/03:00pm 18.5 ENE 9 14 1015.7 - - - - - - - - -
29/02:30pm 18.6 ENE 9 14 1015.9 - - - - - - - - -
29/02:00pm 18.5 ENE 9 13 1016.1 - - - - - - - - -
29/01:30pm 18.5 ENE 9 12 1016.4 - - - - - - - - -
29/01:00pm 18.6 E 8 12 1016.5 - - - - - - - - -
29/12:30pm 18.8 E 7 11 1016.7 - - - - - - - - -
29/12:00pm 18.6 ESE 7 11 1017.0 - - - - - - - - -
29/11:00am 18.8 E 5 8 1017.4 - - - - - - - - -
29/10:30am 18.7 SE 6 9 1017.4 - - - - - - - - -
29/10:00am 18.6 SE 7 10 1017.4 - - - - - - - - -
29/09:30am 19.1 SE 6 10 1017.1 - - - - - - - - -
29/09:00am 19.1 SSW 5 10 1017.0 - - - - - - - - -
29/08:30am 19.0 S 6 10 1016.8 - - - - - - - - -
29/08:00am 18.8 SSW 7 13 1016.5 - - - - - - - - -
29/07:30am 18.4 S 6 10 1016.0 - - - - - - - - -

Other Formats:

Comma delimited format used in spreadsheet applications
http://www.bom.gov.au/fwo/IDN60701/IDN60701.95745.axf

JavaScript Object Notation format (JSON) in row-major order
http://www.bom.gov.au/fwo/IDN60701/IDN60701.95745.json